sensor_id;sensor_type;location;lat;lon;timestamp;P1;durP1;ratioP1;P2;durP2;ratioP2
19776;SDS011;10047;42.490;26.012;2022-12-18T00:01:51;8.15;;;6.18;;
19776;SDS011;10047;42.490;26.012;2022-12-18T00:04:21;7.68;;;6.38;;
19776;SDS011;10047;42.490;26.012;2022-12-18T00:06:48;8.20;;;5.80;;
19776;SDS011;10047;42.490;26.012;2022-12-18T00:09:14;9.30;;;6.22;;
19776;SDS011;10047;42.490;26.012;2022-12-18T00:11:40;9.32;;;6.18;;
19776;SDS011;10047;42.490;26.012;2022-12-18T00:14:06;8.55;;;6.15;;
19776;SDS011;10047;42.490;26.012;2022-12-18T00:16:31;8.38;;;6.43;;
19776;SDS011;10047;42.490;26.012;2022-12-18T00:18:58;9.68;;;6.57;;
19776;SDS011;10047;42.490;26.012;2022-12-18T00:21:25;8.13;;;6.68;;
19776;SDS011;10047;42.490;26.012;2022-12-18T00:23:51;7.13;;;6.35;;
19776;SDS011;10047;42.490;26.012;2022-12-18T00:26:21;8.60;;;6.75;;
19776;SDS011;10047;42.490;26.012;2022-12-18T00:28:49;8.85;;;6.53;;
19776;SDS011;10047;42.490;26.012;2022-12-18T00:31:19;10.80;;;6.93;;
19776;SDS011;10047;42.490;26.012;2022-12-18T00:36:19;8.98;;;6.45;;
19776;SDS011;10047;42.490;26.012;2022-12-18T00:38:46;7.63;;;6.50;;
19776;SDS011;10047;42.490;26.012;2022-12-18T00:41:13;8.40;;;6.10;;
19776;SDS011;10047;42.490;26.012;2022-12-18T00:44:00;9.23;;;5.88;;
19776;SDS011;10047;42.490;26.012;2022-12-18T00:46:25;6.68;;;5.50;;
19776;SDS011;10047;42.490;26.012;2022-12-18T00:48:51;9.70;;;5.65;;
19776;SDS011;10047;42.490;26.012;2022-12-18T00:51:16;7.03;;;6.13;;
19776;SDS011;10047;42.490;26.012;2022-12-18T00:53:42;6.75;;;5.88;;
19776;SDS011;10047;42.490;26.012;2022-12-18T00:56:07;8.13;;;5.68;;
19776;SDS011;10047;42.490;26.012;2022-12-18T00:58:32;8.00;;;5.85;;
19776;SDS011;10047;42.490;26.012;2022-12-18T01:01:01;7.43;;;5.80;;
19776;SDS011;10047;42.490;26.012;2022-12-18T01:03:28;7.30;;;5.90;;
19776;SDS011;10047;42.490;26.012;2022-12-18T01:05:53;7.03;;;6.13;;
19776;SDS011;10047;42.490;26.012;2022-12-18T01:08:19;7.45;;;6.00;;
19776;SDS011;10047;42.490;26.012;2022-12-18T01:10:44;7.88;;;6.32;;
19776;SDS011;10047;42.490;26.012;2022-12-18T01:13:09;7.30;;;5.68;;
19776;SDS011;10047;42.490;26.012;2022-12-18T01:15:35;6.30;;;5.70;;
19776;SDS011;10047;42.490;26.012;2022-12-18T01:18:00;8.48;;;5.90;;
19776;SDS011;10047;42.490;26.012;2022-12-18T01:20:26;9.48;;;5.93;;
19776;SDS011;10047;42.490;26.012;2022-12-18T01:22:51;6.53;;;5.57;;
19776;SDS011;10047;42.490;26.012;2022-12-18T01:25:17;7.65;;;5.70;;
19776;SDS011;10047;42.490;26.012;2022-12-18T01:27:42;7.18;;;5.60;;
19776;SDS011;10047;42.490;26.012;2022-12-18T01:30:08;8.45;;;6.10;;
19776;SDS011;10047;42.490;26.012;2022-12-18T01:32:34;9.23;;;6.18;;
19776;SDS011;10047;42.490;26.012;2022-12-18T01:34:59;6.80;;;6.05;;
19776;SDS011;10047;42.490;26.012;2022-12-18T01:37:25;8.07;;;6.18;;
19776;SDS011;10047;42.490;26.012;2022-12-18T01:39:51;8.13;;;5.72;;
19776;SDS011;10047;42.490;26.012;2022-12-18T01:42:19;7.50;;;5.90;;
19776;SDS011;10047;42.490;26.012;2022-12-18T01:44:55;9.35;;;6.63;;
19776;SDS011;10047;42.490;26.012;2022-12-18T01:47:32;8.60;;;6.40;;
19776;SDS011;10047;42.490;26.012;2022-12-18T01:50:05;7.90;;;6.78;;
19776;SDS011;10047;42.490;26.012;2022-12-18T01:52:34;10.45;;;8.73;;
19776;SDS011;10047;42.490;26.012;2022-12-18T01:55:02;12.38;;;10.15;;
19776;SDS011;10047;42.490;26.012;2022-12-18T01:57:29;13.55;;;10.80;;
19776;SDS011;10047;42.490;26.012;2022-12-18T01:59:56;13.95;;;11.70;;
19776;SDS011;10047;42.490;26.012;2022-12-18T02:02:26;14.68;;;12.00;;
19776;SDS011;10047;42.490;26.012;2022-12-18T02:04:53;13.52;;;10.88;;
19776;SDS011;10047;42.490;26.012;2022-12-18T02:07:40;13.32;;;11.32;;
19776;SDS011;10047;42.490;26.012;2022-12-18T02:17:05;10.75;;;9.30;;
19776;SDS011;10047;42.490;26.012;2022-12-18T02:19:02;24.15;;;17.50;;
19776;SDS011;10047;42.490;26.012;2022-12-18T02:21:42;23.95;;;16.52;;
19776;SDS011;10047;42.490;26.012;2022-12-18T02:26:51;12.45;;;9.68;;
19776;SDS011;10047;42.490;26.012;2022-12-18T02:29:22;8.77;;;7.23;;
19776;SDS011;10047;42.490;26.012;2022-12-18T02:31:54;11.98;;;9.30;;
19776;SDS011;10047;42.490;26.012;2022-12-18T02:34:22;10.55;;;8.00;;
19776;SDS011;10047;42.490;26.012;2022-12-18T02:36:52;10.95;;;7.85;;
19776;SDS011;10047;42.490;26.012;2022-12-18T02:39:19;11.40;;;7.95;;
19776;SDS011;10047;42.490;26.012;2022-12-18T02:41:47;9.57;;;7.57;;
19776;SDS011;10047;42.490;26.012;2022-12-18T02:44:13;20.52;;;14.07;;
19776;SDS011;10047;42.490;26.012;2022-12-18T02:46:41;16.85;;;12.68;;
19776;SDS011;10047;42.490;26.012;2022-12-18T02:51:47;23.45;;;17.63;;
19776;SDS011;10047;42.490;26.012;2022-12-18T02:56:57;17.30;;;14.27;;
19776;SDS011;10047;42.490;26.012;2022-12-18T02:59:29;16.15;;;14.05;;
19776;SDS011;10047;42.490;26.012;2022-12-18T03:04:43;10.32;;;8.25;;
19776;SDS011;10047;42.490;26.012;2022-12-18T03:07:32;9.25;;;6.90;;
19776;SDS011;10047;42.490;26.012;2022-12-18T03:10:01;9.75;;;7.00;;
19776;SDS011;10047;42.490;26.012;2022-12-18T03:12:31;8.48;;;6.72;;
19776;SDS011;10047;42.490;26.012;2022-12-18T03:15:11;8.63;;;6.80;;
19776;SDS011;10047;42.490;26.012;2022-12-18T03:17:43;8.27;;;7.30;;
19776;SDS011;10047;42.490;26.012;2022-12-18T03:22:42;7.50;;;6.30;;
19776;SDS011;10047;42.490;26.012;2022-12-18T03:25:12;8.63;;;6.15;;
19776;SDS011;10047;42.490;26.012;2022-12-18T03:27:41;7.57;;;6.68;;
19776;SDS011;10047;42.490;26.012;2022-12-18T03:30:11;8.68;;;6.45;;
19776;SDS011;10047;42.490;26.012;2022-12-18T03:32:48;9.25;;;7.07;;
19776;SDS011;10047;42.490;26.012;2022-12-18T03:35:16;9.38;;;6.63;;
19776;SDS011;10047;42.490;26.012;2022-12-18T03:40:11;11.00;;;6.72;;
19776;SDS011;10047;42.490;26.012;2022-12-18T03:45:10;9.32;;;7.78;;
19776;SDS011;10047;42.490;26.012;2022-12-18T03:48:02;9.38;;;7.25;;
19776;SDS011;10047;42.490;26.012;2022-12-18T03:56:29;9.27;;;6.97;;
19776;SDS011;10047;42.490;26.012;2022-12-18T03:58:58;6.47;;;5.57;;
19776;SDS011;10047;42.490;26.012;2022-12-18T04:01:28;7.30;;;5.85;;
19776;SDS011;10047;42.490;26.012;2022-12-18T04:03:59;7.32;;;6.28;;
19776;SDS011;10047;42.490;26.012;2022-12-18T04:06:27;6.88;;;6.00;;
19776;SDS011;10047;42.490;26.012;2022-12-18T04:08:53;8.50;;;6.35;;
19776;SDS011;10047;42.490;26.012;2022-12-18T04:11:19;7.38;;;5.95;;
19776;SDS011;10047;42.490;26.012;2022-12-18T04:13:46;7.75;;;5.68;;
19776;SDS011;10047;42.490;26.012;2022-12-18T04:16:12;7.65;;;6.03;;
19776;SDS011;10047;42.490;26.012;2022-12-18T04:18:37;8.13;;;6.05;;
19776;SDS011;10047;42.490;26.012;2022-12-18T04:21:02;6.95;;;5.53;;
19776;SDS011;10047;42.490;26.012;2022-12-18T04:23:28;9.25;;;6.15;;
19776;SDS011;10047;42.490;26.012;2022-12-18T04:25:53;7.95;;;6.60;;
19776;SDS011;10047;42.490;26.012;2022-12-18T04:28:19;8.57;;;6.50;;
19776;SDS011;10047;42.490;26.012;2022-12-18T04:30:45;9.18;;;6.65;;
19776;SDS011;10047;42.490;26.012;2022-12-18T04:33:11;6.68;;;5.80;;
19776;SDS011;10047;42.490;26.012;2022-12-18T04:35:37;8.63;;;6.25;;
19776;SDS011;10047;42.490;26.012;2022-12-18T04:38:03;7.90;;;6.07;;
19776;SDS011;10047;42.490;26.012;2022-12-18T04:40:31;8.30;;;5.20;;
19776;SDS011;10047;42.490;26.012;2022-12-18T04:42:56;7.78;;;6.05;;
19776;SDS011;10047;42.490;26.012;2022-12-18T04:45:22;7.15;;;4.82;;
19776;SDS011;10047;42.490;26.012;2022-12-18T04:47:47;5.75;;;4.63;;
19776;SDS011;10047;42.490;26.012;2022-12-18T04:50:12;8.25;;;4.70;;
19776;SDS011;10047;42.490;26.012;2022-12-18T04:52:38;8.00;;;5.45;;
19776;SDS011;10047;42.490;26.012;2022-12-18T04:55:03;8.13;;;5.60;;
19776;SDS011;10047;42.490;26.012;2022-12-18T04:57:29;7.03;;;5.68;;
19776;SDS011;10047;42.490;26.012;2022-12-18T04:59:54;5.90;;;5.00;;
19776;SDS011;10047;42.490;26.012;2022-12-18T05:02:20;7.60;;;5.93;;
19776;SDS011;10047;42.490;26.012;2022-12-18T05:04:45;9.70;;;6.50;;
19776;SDS011;10047;42.490;26.012;2022-12-18T05:07:11;8.80;;;6.30;;
19776;SDS011;10047;42.490;26.012;2022-12-18T05:09:36;7.13;;;5.95;;
19776;SDS011;10047;42.490;26.012;2022-12-18T05:12:01;5.40;;;4.75;;
19776;SDS011;10047;42.490;26.012;2022-12-18T05:14:27;7.18;;;4.70;;
19776;SDS011;10047;42.490;26.012;2022-12-18T05:16:54;7.28;;;4.70;;
19776;SDS011;10047;42.490;26.012;2022-12-18T05:19:19;6.05;;;4.82;;
19776;SDS011;10047;42.490;26.012;2022-12-18T05:21:45;7.80;;;4.78;;
19776;SDS011;10047;42.490;26.012;2022-12-18T05:24:10;5.63;;;4.53;;
19776;SDS011;10047;42.490;26.012;2022-12-18T05:26:36;5.45;;;4.90;;
19776;SDS011;10047;42.490;26.012;2022-12-18T05:29:02;7.10;;;5.35;;
19776;SDS011;10047;42.490;26.012;2022-12-18T05:31:27;6.75;;;5.57;;
19776;SDS011;10047;42.490;26.012;2022-12-18T05:33:52;6.65;;;5.47;;
19776;SDS011;10047;42.490;26.012;2022-12-18T05:36:19;7.28;;;5.60;;
19776;SDS011;10047;42.490;26.012;2022-12-18T05:38:44;7.38;;;5.53;;
19776;SDS011;10047;42.490;26.012;2022-12-18T05:41:10;8.73;;;6.30;;
19776;SDS011;10047;42.490;26.012;2022-12-18T05:43:36;8.57;;;6.30;;
19776;SDS011;10047;42.490;26.012;2022-12-18T05:46:03;7.55;;;5.43;;
19776;SDS011;10047;42.490;26.012;2022-12-18T05:48:32;8.10;;;5.75;;
19776;SDS011;10047;42.490;26.012;2022-12-18T05:51:02;10.75;;;8.82;;
19776;SDS011;10047;42.490;26.012;2022-12-18T05:53:30;13.68;;;9.98;;
19776;SDS011;10047;42.490;26.012;2022-12-18T05:55:59;8.10;;;5.70;;
19776;SDS011;10047;42.490;26.012;2022-12-18T05:58:25;10.95;;;7.07;;
19776;SDS011;10047;42.490;26.012;2022-12-18T06:00:51;10.98;;;7.60;;
19776;SDS011;10047;42.490;26.012;2022-12-18T06:03:16;6.40;;;5.47;;
19776;SDS011;10047;42.490;26.012;2022-12-18T06:05:43;7.13;;;5.00;;
19776;SDS011;10047;42.490;26.012;2022-12-18T06:08:09;6.72;;;5.18;;
19776;SDS011;10047;42.490;26.012;2022-12-18T06:10:36;5.03;;;4.45;;
19776;SDS011;10047;42.490;26.012;2022-12-18T06:13:02;5.82;;;4.28;;
19776;SDS011;10047;42.490;26.012;2022-12-18T06:15:28;5.03;;;3.70;;
19776;SDS011;10047;42.490;26.012;2022-12-18T06:17:53;5.65;;;4.00;;
19776;SDS011;10047;42.490;26.012;2022-12-18T06:20:19;6.80;;;4.85;;
19776;SDS011;10047;42.490;26.012;2022-12-18T06:22:44;7.15;;;4.55;;
19776;SDS011;10047;42.490;26.012;2022-12-18T06:25:10;6.28;;;4.40;;
19776;SDS011;10047;42.490;26.012;2022-12-18T06:27:35;6.28;;;4.97;;
19776;SDS011;10047;42.490;26.012;2022-12-18T06:30:01;7.07;;;4.75;;
19776;SDS011;10047;42.490;26.012;2022-12-18T06:32:27;6.30;;;4.47;;
19776;SDS011;10047;42.490;26.012;2022-12-18T06:34:53;6.03;;;4.20;;
19776;SDS011;10047;42.490;26.012;2022-12-18T06:37:20;4.97;;;4.30;;
19776;SDS011;10047;42.490;26.012;2022-12-18T06:39:46;6.30;;;4.60;;
19776;SDS011;10047;42.490;26.012;2022-12-18T06:42:11;6.03;;;4.32;;
19776;SDS011;10047;42.490;26.012;2022-12-18T06:44:37;5.28;;;4.28;;
19776;SDS011;10047;42.490;26.012;2022-12-18T06:47:02;4.18;;;3.40;;
19776;SDS011;10047;42.490;26.012;2022-12-18T06:49:28;5.03;;;3.83;;
19776;SDS011;10047;42.490;26.012;2022-12-18T06:51:53;5.63;;;3.83;;
19776;SDS011;10047;42.490;26.012;2022-12-18T06:54:18;5.45;;;4.05;;
19776;SDS011;10047;42.490;26.012;2022-12-18T06:56:47;5.43;;;4.18;;
19776;SDS011;10047;42.490;26.012;2022-12-18T06:59:13;5.45;;;3.80;;
19776;SDS011;10047;42.490;26.012;2022-12-18T07:01:40;5.07;;;3.67;;
19776;SDS011;10047;42.490;26.012;2022-12-18T07:04:06;4.10;;;3.30;;
19776;SDS011;10047;42.490;26.012;2022-12-18T07:06:31;3.60;;;3.20;;
19776;SDS011;10047;42.490;26.012;2022-12-18T07:08:57;4.45;;;3.65;;
19776;SDS011;10047;42.490;26.012;2022-12-18T07:11:22;4.50;;;3.75;;
19776;SDS011;10047;42.490;26.012;2022-12-18T07:13:48;4.75;;;3.60;;
19776;SDS011;10047;42.490;26.012;2022-12-18T07:16:14;6.68;;;4.20;;
19776;SDS011;10047;42.490;26.012;2022-12-18T07:18:44;6.00;;;4.30;;
19776;SDS011;10047;42.490;26.012;2022-12-18T07:21:13;5.43;;;4.53;;
19776;SDS011;10047;42.490;26.012;2022-12-18T07:23:40;6.97;;;4.87;;
19776;SDS011;10047;42.490;26.012;2022-12-18T07:26:07;6.53;;;5.28;;
19776;SDS011;10047;42.490;26.012;2022-12-18T07:28:34;5.57;;;4.50;;
19776;SDS011;10047;42.490;26.012;2022-12-18T07:31:34;5.60;;;4.30;;
19776;SDS011;10047;42.490;26.012;2022-12-18T07:33:52;6.25;;;4.60;;
19776;SDS011;10047;42.490;26.012;2022-12-18T07:36:18;5.55;;;4.32;;
19776;SDS011;10047;42.490;26.012;2022-12-18T07:38:46;6.15;;;4.47;;
19776;SDS011;10047;42.490;26.012;2022-12-18T07:41:13;7.50;;;5.18;;
19776;SDS011;10047;42.490;26.012;2022-12-18T07:43:39;10.35;;;6.03;;
19776;SDS011;10047;42.490;26.012;2022-12-18T07:46:06;10.68;;;6.00;;
19776;SDS011;10047;42.490;26.012;2022-12-18T07:48:32;8.15;;;5.97;;
19776;SDS011;10047;42.490;26.012;2022-12-18T07:51:02;9.85;;;5.82;;
19776;SDS011;10047;42.490;26.012;2022-12-18T07:53:29;7.50;;;5.13;;
19776;SDS011;10047;42.490;26.012;2022-12-18T07:55:58;8.63;;;5.82;;
19776;SDS011;10047;42.490;26.012;2022-12-18T07:58:25;10.73;;;6.22;;
19776;SDS011;10047;42.490;26.012;2022-12-18T08:00:51;10.23;;;6.28;;
19776;SDS011;10047;42.490;26.012;2022-12-18T08:03:17;8.85;;;6.18;;
19776;SDS011;10047;42.490;26.012;2022-12-18T08:05:43;11.48;;;6.25;;
19776;SDS011;10047;42.490;26.012;2022-12-18T08:08:08;8.52;;;6.45;;
19776;SDS011;10047;42.490;26.012;2022-12-18T08:10:37;7.57;;;6.22;;
19776;SDS011;10047;42.490;26.012;2022-12-18T08:13:02;7.82;;;5.55;;
19776;SDS011;10047;42.490;26.012;2022-12-18T08:15:28;7.72;;;6.22;;
19776;SDS011;10047;42.490;26.012;2022-12-18T08:17:56;8.50;;;6.00;;
19776;SDS011;10047;42.490;26.012;2022-12-18T08:20:21;8.15;;;6.30;;
19776;SDS011;10047;42.490;26.012;2022-12-18T08:22:47;8.52;;;6.28;;
19776;SDS011;10047;42.490;26.012;2022-12-18T08:25:12;7.63;;;5.60;;
19776;SDS011;10047;42.490;26.012;2022-12-18T08:27:37;8.30;;;6.25;;
19776;SDS011;10047;42.490;26.012;2022-12-18T08:30:03;10.77;;;6.55;;
19776;SDS011;10047;42.490;26.012;2022-12-18T08:32:29;8.23;;;6.70;;
19776;SDS011;10047;42.490;26.012;2022-12-18T08:34:55;10.00;;;6.63;;
19776;SDS011;10047;42.490;26.012;2022-12-18T08:37:20;11.50;;;7.40;;
19776;SDS011;10047;42.490;26.012;2022-12-18T08:39:48;10.80;;;7.13;;
19776;SDS011;10047;42.490;26.012;2022-12-18T08:42:14;10.07;;;7.10;;
19776;SDS011;10047;42.490;26.012;2022-12-18T08:44:58;9.35;;;6.53;;
19776;SDS011;10047;42.490;26.012;2022-12-18T08:47:23;13.57;;;10.95;;
19776;SDS011;10047;42.490;26.012;2022-12-18T08:49:50;12.75;;;8.10;;
19776;SDS011;10047;42.490;26.012;2022-12-18T08:52:16;9.88;;;7.35;;
19776;SDS011;10047;42.490;26.012;2022-12-18T08:54:41;11.27;;;7.55;;
19776;SDS011;10047;42.490;26.012;2022-12-18T08:57:07;9.75;;;6.70;;
19776;SDS011;10047;42.490;26.012;2022-12-18T08:59:32;9.88;;;6.25;;
19776;SDS011;10047;42.490;26.012;2022-12-18T09:01:57;9.52;;;7.05;;
19776;SDS011;10047;42.490;26.012;2022-12-18T09:04:23;12.15;;;7.30;;
19776;SDS011;10047;42.490;26.012;2022-12-18T09:06:48;10.73;;;7.60;;
19776;SDS011;10047;42.490;26.012;2022-12-18T09:09:14;10.73;;;7.20;;
19776;SDS011;10047;42.490;26.012;2022-12-18T09:11:39;9.15;;;6.50;;
19776;SDS011;10047;42.490;26.012;2022-12-18T09:14:05;11.27;;;7.65;;
19776;SDS011;10047;42.490;26.012;2022-12-18T09:16:30;9.77;;;6.85;;
19776;SDS011;10047;42.490;26.012;2022-12-18T09:18:57;9.48;;;7.00;;
19776;SDS011;10047;42.490;26.012;2022-12-18T09:21:30;12.30;;;7.07;;
19776;SDS011;10047;42.490;26.012;2022-12-18T09:23:57;12.15;;;6.95;;
19776;SDS011;10047;42.490;26.012;2022-12-18T09:26:23;12.60;;;8.32;;
19776;SDS011;10047;42.490;26.012;2022-12-18T09:28:49;13.10;;;10.55;;
19776;SDS011;10047;42.490;26.012;2022-12-18T09:31:16;12.20;;;10.45;;
19776;SDS011;10047;42.490;26.012;2022-12-18T09:33:43;13.85;;;11.63;;
19776;SDS011;10047;42.490;26.012;2022-12-18T09:36:11;17.45;;;13.75;;
19776;SDS011;10047;42.490;26.012;2022-12-18T09:38:37;22.00;;;16.58;;
19776;SDS011;10047;42.490;26.012;2022-12-18T09:41:37;22.83;;;17.13;;
19776;SDS011;10047;42.490;26.012;2022-12-18T09:44:01;21.58;;;15.95;;
19776;SDS011;10047;42.490;26.012;2022-12-18T09:46:31;25.20;;;19.17;;
19776;SDS011;10047;42.490;26.012;2022-12-18T09:49:05;15.93;;;11.52;;
19776;SDS011;10047;42.490;26.012;2022-12-18T09:51:37;14.65;;;10.65;;
19776;SDS011;10047;42.490;26.012;2022-12-18T09:54:10;13.18;;;10.60;;
19776;SDS011;10047;42.490;26.012;2022-12-18T09:56:40;14.55;;;10.88;;
19776;SDS011;10047;42.490;26.012;2022-12-18T09:59:09;14.48;;;9.50;;
19776;SDS011;10047;42.490;26.012;2022-12-18T10:02:15;12.43;;;8.98;;
19776;SDS011;10047;42.490;26.012;2022-12-18T10:04:41;14.98;;;11.13;;
19776;SDS011;10047;42.490;26.012;2022-12-18T10:07:09;21.42;;;15.05;;
19776;SDS011;10047;42.490;26.012;2022-12-18T10:12:32;26.85;;;19.73;;
19776;SDS011;10047;42.490;26.012;2022-12-18T10:18:14;46.45;;;29.15;;
19776;SDS011;10047;42.490;26.012;2022-12-18T10:20:52;37.17;;;26.88;;
19776;SDS011;10047;42.490;26.012;2022-12-18T10:23:32;30.00;;;19.35;;
19776;SDS011;10047;42.490;26.012;2022-12-18T10:26:06;24.23;;;17.25;;
19776;SDS011;10047;42.490;26.012;2022-12-18T10:28:34;31.38;;;20.63;;
19776;SDS011;10047;42.490;26.012;2022-12-18T10:31:01;33.67;;;24.38;;
19776;SDS011;10047;42.490;26.012;2022-12-18T10:33:30;24.67;;;19.85;;
19776;SDS011;10047;42.490;26.012;2022-12-18T10:35:57;29.88;;;20.75;;
19776;SDS011;10047;42.490;26.012;2022-12-18T10:38:24;20.08;;;14.82;;
19776;SDS011;10047;42.490;26.012;2022-12-18T10:43:22;17.67;;;12.50;;
19776;SDS011;10047;42.490;26.012;2022-12-18T10:46:00;17.67;;;11.73;;
19776;SDS011;10047;42.490;26.012;2022-12-18T10:51:18;21.27;;;15.77;;
19776;SDS011;10047;42.490;26.012;2022-12-18T10:53:57;18.08;;;13.45;;
19776;SDS011;10047;42.490;26.012;2022-12-18T10:56:27;25.50;;;18.80;;
19776;SDS011;10047;42.490;26.012;2022-12-18T10:58:58;34.00;;;27.33;;
19776;SDS011;10047;42.490;26.012;2022-12-18T11:01:25;74.18;;;66.32;;
19776;SDS011;10047;42.490;26.012;2022-12-18T11:06:21;43.05;;;38.35;;
19776;SDS011;10047;42.490;26.012;2022-12-18T11:11:31;41.08;;;34.00;;
19776;SDS011;10047;42.490;26.012;2022-12-18T11:14:12;23.13;;;18.02;;
19776;SDS011;10047;42.490;26.012;2022-12-18T11:16:44;35.33;;;23.33;;
19776;SDS011;10047;42.490;26.012;2022-12-18T11:19:24;22.23;;;15.80;;
19776;SDS011;10047;42.490;26.012;2022-12-18T11:22:00;37.65;;;27.75;;
19776;SDS011;10047;42.490;26.012;2022-12-18T11:24:32;33.50;;;24.30;;
19776;SDS011;10047;42.490;26.012;2022-12-18T11:27:00;29.50;;;23.80;;
19776;SDS011;10047;42.490;26.012;2022-12-18T11:29:35;41.47;;;36.60;;
19776;SDS011;10047;42.490;26.012;2022-12-18T11:34:44;26.02;;;20.15;;
19776;SDS011;10047;42.490;26.012;2022-12-18T11:37:13;19.42;;;14.35;;
19776;SDS011;10047;42.490;26.012;2022-12-18T11:39:52;20.08;;;16.55;;
19776;SDS011;10047;42.490;26.012;2022-12-18T11:42:21;30.00;;;21.98;;
19776;SDS011;10047;42.490;26.012;2022-12-18T11:45:02;31.65;;;23.08;;
19776;SDS011;10047;42.490;26.012;2022-12-18T11:50:20;37.67;;;25.42;;
19776;SDS011;10047;42.490;26.012;2022-12-18T11:52:49;38.22;;;24.63;;
19776;SDS011;10047;42.490;26.012;2022-12-18T12:01:59;39.08;;;31.70;;
19776;SDS011;10047;42.490;26.012;2022-12-18T12:15:26;73.38;;;47.25;;
19776;SDS011;10047;42.490;26.012;2022-12-18T12:23:22;90.90;;;80.47;;
19776;SDS011;10047;42.490;26.012;2022-12-18T12:25:59;44.85;;;33.75;;
19776;SDS011;10047;42.490;26.012;2022-12-18T12:28:42;51.50;;;35.85;;
19776;SDS011;10047;42.490;26.012;2022-12-18T12:34:02;27.33;;;21.30;;
19776;SDS011;10047;42.490;26.012;2022-12-18T12:39:42;22.48;;;17.02;;
19776;SDS011;10047;42.490;26.012;2022-12-18T12:42:15;21.85;;;16.88;;
19776;SDS011;10047;42.490;26.012;2022-12-18T12:46:08;19.55;;;15.30;;
19776;SDS011;10047;42.490;26.012;2022-12-18T12:50:58;30.00;;;25.65;;
19776;SDS011;10047;42.490;26.012;2022-12-18T12:53:33;40.50;;;30.65;;
19776;SDS011;10047;42.490;26.012;2022-12-18T12:56:01;66.03;;;46.17;;
19776;SDS011;10047;42.490;26.012;2022-12-18T12:58:29;74.95;;;53.95;;
19776;SDS011;10047;42.490;26.012;2022-12-18T13:09:01;48.10;;;38.60;;
19776;SDS011;10047;42.490;26.012;2022-12-18T13:11:29;54.17;;;42.53;;
19776;SDS011;10047;42.490;26.012;2022-12-18T13:14:47;46.67;;;36.17;;
19776;SDS011;10047;42.490;26.012;2022-12-18T13:19:40;34.20;;;25.60;;
19776;SDS011;10047;42.490;26.012;2022-12-18T13:22:12;25.48;;;18.67;;
19776;SDS011;10047;42.490;26.012;2022-12-18T13:24:56;24.63;;;17.67;;
19776;SDS011;10047;42.490;26.012;2022-12-18T13:33:42;20.48;;;14.73;;
19776;SDS011;10047;42.490;26.012;2022-12-18T13:45:46;17.50;;;12.35;;
19776;SDS011;10047;42.490;26.012;2022-12-18T13:48:15;15.32;;;11.80;;
19776;SDS011;10047;42.490;26.012;2022-12-18T13:50:57;17.30;;;12.63;;
19776;SDS011;10047;42.490;26.012;2022-12-18T13:53:28;19.13;;;14.57;;
19776;SDS011;10047;42.490;26.012;2022-12-18T13:55:58;18.55;;;14.50;;
19776;SDS011;10047;42.490;26.012;2022-12-18T13:58:23;27.00;;;18.20;;
19776;SDS011;10047;42.490;26.012;2022-12-18T14:00:49;24.83;;;17.05;;
19776;SDS011;10047;42.490;26.012;2022-12-18T14:03:16;23.67;;;16.92;;
19776;SDS011;10047;42.490;26.012;2022-12-18T14:05:44;21.75;;;16.42;;
19776;SDS011;10047;42.490;26.012;2022-12-18T14:08:12;21.35;;;14.85;;
19776;SDS011;10047;42.490;26.012;2022-12-18T14:10:41;21.55;;;15.10;;
19776;SDS011;10047;42.490;26.012;2022-12-18T14:13:09;19.83;;;15.68;;
19776;SDS011;10047;42.490;26.012;2022-12-18T14:15:41;19.50;;;14.25;;
19776;SDS011;10047;42.490;26.012;2022-12-18T14:20:52;19.70;;;13.60;;
19776;SDS011;10047;42.490;26.012;2022-12-18T14:23:28;18.63;;;14.43;;
19776;SDS011;10047;42.490;26.012;2022-12-18T14:28:55;33.70;;;20.48;;
19776;SDS011;10047;42.490;26.012;2022-12-18T14:31:25;41.38;;;22.38;;
19776;SDS011;10047;42.490;26.012;2022-12-18T14:33:53;28.83;;;19.33;;
19776;SDS011;10047;42.490;26.012;2022-12-18T14:36:23;26.13;;;17.67;;
19776;SDS011;10047;42.490;26.012;2022-12-18T14:38:50;25.70;;;18.92;;
19776;SDS011;10047;42.490;26.012;2022-12-18T14:41:18;27.83;;;19.98;;
19776;SDS011;10047;42.490;26.012;2022-12-18T14:43:45;31.33;;;21.70;;
19776;SDS011;10047;42.490;26.012;2022-12-18T14:49:01;29.20;;;18.38;;
19776;SDS011;10047;42.490;26.012;2022-12-18T14:51:46;29.25;;;20.88;;
19776;SDS011;10047;42.490;26.012;2022-12-18T14:54:17;31.63;;;21.92;;
19776;SDS011;10047;42.490;26.012;2022-12-18T14:56:45;31.80;;;23.42;;
19776;SDS011;10047;42.490;26.012;2022-12-18T14:59:21;36.10;;;27.15;;
19776;SDS011;10047;42.490;26.012;2022-12-18T15:01:59;67.70;;;50.22;;
19776;SDS011;10047;42.490;26.012;2022-12-18T15:04:30;52.42;;;35.45;;
19776;SDS011;10047;42.490;26.012;2022-12-18T15:09:35;36.72;;;25.65;;
19776;SDS011;10047;42.490;26.012;2022-12-18T15:12:02;35.60;;;23.23;;
19776;SDS011;10047;42.490;26.012;2022-12-18T15:15:02;34.95;;;24.02;;
19776;SDS011;10047;42.490;26.012;2022-12-18T15:17:23;35.60;;;23.90;;
19776;SDS011;10047;42.490;26.012;2022-12-18T15:19:50;34.08;;;19.92;;
19776;SDS011;10047;42.490;26.012;2022-12-18T15:22:20;32.10;;;22.90;;
19776;SDS011;10047;42.490;26.012;2022-12-18T15:24:49;37.03;;;24.30;;
19776;SDS011;10047;42.490;26.012;2022-12-18T15:32:34;31.70;;;22.50;;
19776;SDS011;10047;42.490;26.012;2022-12-18T15:37:36;31.95;;;23.65;;
19776;SDS011;10047;42.490;26.012;2022-12-18T15:40:04;29.77;;;22.38;;
19776;SDS011;10047;42.490;26.012;2022-12-18T15:42:30;28.70;;;20.83;;
19776;SDS011;10047;42.490;26.012;2022-12-18T15:45:14;33.85;;;23.58;;
19776;SDS011;10047;42.490;26.012;2022-12-18T15:47:41;36.40;;;24.88;;
19776;SDS011;10047;42.490;26.012;2022-12-18T15:50:08;33.75;;;23.20;;
19776;SDS011;10047;42.490;26.012;2022-12-18T15:52:38;34.42;;;22.80;;
19776;SDS011;10047;42.490;26.012;2022-12-18T15:55:12;31.08;;;21.15;;
19776;SDS011;10047;42.490;26.012;2022-12-18T15:57:58;27.77;;;19.98;;
19776;SDS011;10047;42.490;26.012;2022-12-18T16:00:23;24.63;;;18.42;;
19776;SDS011;10047;42.490;26.012;2022-12-18T16:02:49;30.05;;;21.67;;
19776;SDS011;10047;42.490;26.012;2022-12-18T16:05:15;27.00;;;19.10;;
19776;SDS011;10047;42.490;26.012;2022-12-18T16:07:42;29.23;;;19.83;;
19776;SDS011;10047;42.490;26.012;2022-12-18T16:10:08;29.10;;;19.85;;
19776;SDS011;10047;42.490;26.012;2022-12-18T16:12:34;25.90;;;18.77;;
19776;SDS011;10047;42.490;26.012;2022-12-18T16:14:59;27.67;;;19.70;;
19776;SDS011;10047;42.490;26.012;2022-12-18T16:17:25;29.60;;;21.25;;
19776;SDS011;10047;42.490;26.012;2022-12-18T16:19:50;31.77;;;21.95;;
19776;SDS011;10047;42.490;26.012;2022-12-18T16:22:26;29.77;;;21.40;;
19776;SDS011;10047;42.490;26.012;2022-12-18T16:24:53;39.55;;;27.00;;
19776;SDS011;10047;42.490;26.012;2022-12-18T16:27:20;35.90;;;24.17;;
19776;SDS011;10047;42.490;26.012;2022-12-18T16:29:46;39.90;;;28.42;;
19776;SDS011;10047;42.490;26.012;2022-12-18T16:32:13;41.22;;;28.52;;
19776;SDS011;10047;42.490;26.012;2022-12-18T16:34:40;39.25;;;26.73;;
19776;SDS011;10047;42.490;26.012;2022-12-18T16:37:08;41.22;;;27.40;;
19776;SDS011;10047;42.490;26.012;2022-12-18T16:39:34;46.70;;;30.80;;
19776;SDS011;10047;42.490;26.012;2022-12-18T16:42:02;46.50;;;28.20;;
19776;SDS011;10047;42.490;26.012;2022-12-18T16:44:30;46.47;;;30.30;;
19776;SDS011;10047;42.490;26.012;2022-12-18T16:46:55;42.88;;;28.33;;